الصفحة الرئيسية
METAR-TAF:

METAR-TAF

مطار :

Great Barrier Reef Airport

Hamilton Island, أستراليا

دائرة عرض: 20-21-29S, خط طول: 148-57-06E, ارتفاع: 5 متر

مراقبة الطقس الحالي

تاريخ ووقت الإصدار 43 دقيقة قبل الساعة 20:00UTC
ريح 19 عقدة من الشرق/الجنوب الشرقي
درجة الحرارة 24°درجة مئوية
الرطوبة 78%
ضغط 1013 hPa
الرؤية 10 كم أو أكثر
غيوم متفرقة على ارتفاع 2300 قدم
غيوم مفككة على ارتفاع 4100 قدم
غيوم مفككة على ارتفاع 5100 قدم

METAR: YBHM 172000Z AUTO 11019KT 9999 // SCT023 BKN041 BKN051 24/20 Q1013

زمن: 06:43 (20:43 UTC)

توقعات

تاريخ ووقت الإصدار 3ساعات و 40 دقيقة قبل الساعة 17:03UTC
التوقعات صالحة من17 الساعة 18 UTC إلى 18 الساعة 06 UTC
ريح 20 عقدة من الشرق/الجنوب الشرقي
الرؤية: 3000 متر
غيوم مفككة على ارتفاع 2000 قدم
غيوم مفككة على ارتفاع 1000 قدم
زخات من الأمطار الخفيفة, زخات من المطر

TAF: YBHM 171703Z 1718/1806 11020KT 9999 -SHRA BKN020 INTER 1718/1806 3000 SHRA BKN010

أرصاد الطقس والتوقعات من أكثر من 4000 مطار (تقارير الطقس للمطار METAR والتنبؤ بالطقس بالمطارTAF).

المحطات المتاحة هي النقط الصفراء والحمراء على الخريطة.

حرك المؤشر فوق النقطة لمعرفة اسم المحطة.

ثم انقر لمعرفة أرصاد وتوقعات الطقس.

لتغيير الخارطة: اضغط على الأزرار الخضراء مع رمز الصليب الأسود للتكبير. على الزر الأخضر مع شرطة للتصغير، أو على الأسهم الخضراء للخرائط المجاورة.


METAR-TAF: